Time;durP1;ratioP1;P1;durP2;ratioP2;P2;SDS_P1;SDS_P2;PMS_P1;PMS_P2;Temp;Humidity;BMP_temperature;BMP_pressure;BME280_temperature;BME280_humidity;BME280_pressure;Samples;Min_cycle;Max_cycle;Signal;HPM_P1;HPM_P2
2021/04/04 00:02:21;;;;;;;1999.90;999.90;;;17.10;89.00;;;;;;5092658;28;20208;-42
2021/04/04 00:04:48;;;;;;;1999.90;999.90;;;17.10;89.30;;;;;;5092703;28;20156;-42
2021/04/04 00:07:15;;;;;;;1999.90;999.90;;;17.10;89.60;;;;;;5092737;28;20168;-42
2021/04/04 00:09:42;;;;;;;1999.90;999.90;;;17.00;89.30;;;;;;5092635;28;20214;-43
2021/04/04 00:12:09;;;;;;;1999.90;999.90;;;17.10;89.50;;;;;;5092642;28;20246;-44
2021/04/04 00:14:36;;;;;;;1999.90;999.90;;;17.10;89.40;;;;;;5092603;28;20164;-42
2021/04/04 00:17:04;;;;;;;1999.90;999.90;;;17.10;90.10;;;;;;5092626;28;20292;-42
2021/04/04 00:19:31;;;;;;;1999.90;999.90;;;17.10;89.20;;;;;;5093681;28;20195;-42
2021/04/04 00:21:58;;;;;;;1999.90;999.90;;;17.10;89.50;;;;;;5096295;28;20203;-42
2021/04/04 00:24:25;;;;;;;1999.90;999.90;;;17.00;89.40;;;;;;5096390;28;20168;-43
2021/04/04 00:26:51;;;;;;;1999.90;999.90;;;17.00;89.60;;;;;;5096280;28;20174;-42
2021/04/04 00:29:18;;;;;;;1999.90;999.90;;;17.00;90.10;;;;;;5096298;28;20622;-43
2021/04/04 00:31:45;;;;;;;1999.90;999.90;;;17.00;90.40;;;;;;5096064;28;20215;-42
2021/04/04 00:34:12;;;;;;;1999.90;999.90;;;17.00;90.80;;;;;;5096142;28;20630;-41
2021/04/04 00:36:39;;;;;;;1999.90;999.90;;;17.00;90.40;;;;;;5096179;28;20210;-42
2021/04/04 00:39:11;;;;;;;1999.90;999.90;;;17.00;90.30;;;;;;5096204;28;20693;-41
2021/04/04 00:41:38;;;;;;;1999.90;999.90;;;16.90;90.20;;;;;;5096049;28;20227;-41
2021/04/04 00:44:06;;;;;;;1999.90;999.90;;;17.00;90.30;;;;;;5096125;28;20667;-44
2021/04/04 00:46:32;;;;;;;1999.90;999.90;;;16.90;90.80;;;;;;5095965;28;20168;-44
2021/04/04 00:48:59;;;;;;;1999.90;999.90;;;16.90;91.10;;;;;;5077730;28;20176;-44
2021/04/04 00:51:26;;;;;;;1999.90;999.90;;;16.80;91.30;;;;;;5095869;28;20543;-32
2021/04/04 00:53:53;;;;;;;1999.90;999.90;;;16.80;91.50;;;;;;5095870;28;20187;-41
2021/04/04 00:56:20;;;;;;;1999.90;999.90;;;16.80;91.30;;;;;;5095718;28;20179;-33
2021/04/04 00:58:48;;;;;;;1999.90;999.90;;;16.80;90.90;;;;;;5095784;28;20166;-32
2021/04/04 01:01:15;;;;;;;1999.90;999.90;;;16.80;90.70;;;;;;5095639;28;20249;-42
2021/04/04 01:03:42;;;;;;;1999.90;999.90;;;16.80;90.90;;;;;;5096069;28;20671;-33
2021/04/04 01:06:09;;;;;;;1999.90;999.90;;;16.80;91.30;;;;;;5095740;28;20179;-43
2021/04/04 01:08:37;;;;;;;1999.90;999.90;;;16.70;91.60;;;;;;5095492;28;20270;-32
2021/04/04 01:11:06;;;;;;;1999.90;999.90;;;16.70;91.70;;;;;;5095516;28;20168;-42
2021/04/04 01:13:55;;;;;;;1999.90;999.90;;;16.70;92.00;;;;;;5095455;28;20199;-42
2021/04/04 01:16:34;;;;;;;1999.90;999.90;;;16.60;92.20;;;;;;5095319;28;20168;-42
2021/04/04 01:19:14;;;;;;;1999.90;999.90;;;16.60;92.10;;;;;;5095393;28;20192;-42
2021/04/04 01:21:58;;;;;;;1999.90;999.90;;;16.60;92.10;;;;;;5095246;28;20658;-43
2021/04/04 01:25:01;;;;;;;1999.90;999.90;;;16.50;92.10;;;;;;5095257;28;20162;-43
2021/04/04 01:28:08;;;;;;;1999.90;999.90;;;16.50;92.20;;;;;;5095260;28;20148;-42
2021/04/04 01:30:38;;;;;;;1999.90;999.90;;;16.50;92.40;;;;;;5089588;28;20218;-43
2021/04/04 01:33:07;;;;;;;1999.90;999.90;;;16.30;92.60;;;;;;5095049;28;20175;-42
2021/04/04 01:35:37;;;;;;;1999.90;999.90;;;16.30;92.80;;;;;;5095053;28;20171;-42
2021/04/04 01:38:13;;;;;;;1999.90;999.90;;;16.30;92.80;;;;;;5094956;28;20168;-42
2021/04/04 01:40:44;;;;;;;1999.90;999.90;;;16.20;92.70;;;;;;5094874;28;20156;-42
2021/04/04 01:43:11;;;;;;;1999.90;999.90;;;16.20;92.60;;;;;;5095009;28;20164;-32
2021/04/04 01:45:41;;;;;;;1999.90;999.90;;;16.20;92.30;;;;;;5094937;28;20250;-33
2021/04/04 01:48:12;;;;;;;1999.90;999.90;;;16.30;91.90;;;;;;5094734;28;20183;-31
2021/04/04 01:50:43;;;;;;;1999.90;999.90;;;16.30;91.00;;;;;;5094735;28;20512;-43
2021/04/04 01:53:12;;;;;;;1999.90;999.90;;;16.30;90.40;;;;;;5094759;28;20182;-45
2021/04/04 01:55:41;;;;;;;1999.90;999.90;;;16.20;90.00;;;;;;5094762;28;20202;-44
2021/04/04 01:58:10;;;;;;;1999.90;999.90;;;16.00;90.40;;;;;;5094590;28;20571;-43
2021/04/04 02:00:38;;;;;;;1999.90;999.90;;;15.90;90.80;;;;;;5094427;28;20168;-44
2021/04/04 02:03:09;;;;;;;1999.90;999.90;;;15.90;90.90;;;;;;5094520;28;20263;-43
2021/04/04 02:05:36;;;;;;;1999.90;999.90;;;15.80;91.10;;;;;;5094412;28;20152;-43
2021/04/04 02:08:07;;;;;;;1999.90;999.90;;;15.80;91.00;;;;;;5094413;28;20163;-44
2021/04/04 02:10:38;;;;;;;1999.90;999.90;;;15.90;91.00;;;;;;5094216;28;20160;-44
2021/04/04 02:13:06;;;;;;;1999.90;999.90;;;15.90;91.00;;;;;;5094330;28;20540;-44
2021/04/04 02:15:35;;;;;;;1999.90;999.90;;;15.90;91.10;;;;;;5094261;28;20168;-44
2021/04/04 02:18:02;;;;;;;1999.90;999.90;;;15.90;91.10;;;;;;5094226;28;20178;-44
2021/04/04 02:20:32;;;;;;;1999.90;999.90;;;15.90;91.30;;;;;;5094058;28;20164;-33
2021/04/04 02:23:02;;;;;;;1999.90;999.90;;;15.90;91.40;;;;;;5094063;28;20168;-32
2021/04/04 02:25:29;;;;;;;1999.90;999.90;;;15.90;91.30;;;;;;5094356;28;20164;-34
2021/04/04 02:27:58;;;;;;;1999.90;999.90;;;15.90;91.90;;;;;;5075920;28;20529;-41
2021/04/04 02:30:25;;;;;;;1999.90;999.90;;;15.80;92.20;;;;;;5093814;28;20211;-42
2021/04/04 02:33:11;;;;;;;1999.90;999.90;;;15.80;92.50;;;;;;5093934;28;20152;-42
2021/04/04 02:35:40;;;;;;;1999.90;999.90;;;15.90;92.30;;;;;;5093954;28;20607;-42
2021/04/04 02:38:22;;;;;;;1999.90;999.90;;;15.80;92.30;;;;;;5093792;28;20175;-42
2021/04/04 02:40:50;;;;;;;1999.90;999.90;;;15.80;92.30;;;;;;5093765;28;20713;-41
2021/04/04 02:43:23;;;;;;;1999.90;999.90;;;15.80;92.80;;;;;;5093042;28;20538;-33
2021/04/04 02:45:51;;;;;;;1999.90;999.90;;;15.80;93.00;;;;;;5093622;28;20167;-43
2021/04/04 02:48:24;;;;;;;1999.90;999.90;;;15.80;93.00;;;;;;5093636;28;20171;-43
2021/04/04 02:50:51;;;;;;;1999.90;999.90;;;15.90;92.80;;;;;;5093552;28;20167;-43
2021/04/04 02:53:20;;;;;;;1999.90;999.90;;;15.90;92.70;;;;;;5093643;28;20644;-33
2021/04/04 02:55:48;;;;;;;1999.90;999.90;;;15.80;93.00;;;;;;5093656;28;20625;-33
2021/04/04 02:58:18;;;;;;;1999.90;999.90;;;15.80;93.30;;;;;;5093590;28;20615;-32
2021/04/04 03:00:46;;;;;;;1999.90;999.90;;;15.70;93.60;;;;;;5075309;28;20595;-44
2021/04/04 03:03:13;;;;;;;1999.90;999.90;;;15.60;93.90;;;;;;5093421;28;20187;-43
2021/04/04 03:05:42;;;;;;;1999.90;999.90;;;15.70;93.80;;;;;;5093362;28;20209;-43
2021/04/04 03:08:10;;;;;;;1999.90;999.90;;;15.70;93.90;;;;;;5093331;28;20254;-44
2021/04/04 03:10:37;;;;;;;1999.90;999.90;;;15.70;94.20;;;;;;5093253;28;20163;-43
2021/04/04 03:13:04;;;;;;;1999.90;999.90;;;15.60;94.20;;;;;;5093304;28;20211;-33
2021/04/04 03:15:33;;;;;;;1999.90;999.90;;;15.60;94.20;;;;;;5093172;28;20167;-33
2021/04/04 03:18:00;;;;;;;1999.90;999.90;;;15.60;94.10;;;;;;5093202;28;20167;-42
2021/04/04 03:20:28;;;;;;;1999.90;999.90;;;15.60;94.30;;;;;;5093172;28;20207;-42
2021/04/04 03:22:57;;;;;;;1999.90;999.90;;;15.60;93.70;;;;;;5092987;28;20685;-44
2021/04/04 03:25:25;;;;;;;1999.90;999.90;;;15.60;93.50;;;;;;5093128;28;20182;-42
2021/04/04 03:27:54;;;;;;;1999.90;999.90;;;15.50;93.20;;;;;;5092944;28;20569;-44
2021/04/04 03:30:42;;;;;;;1999.90;999.90;;;15.60;92.90;;;;;;5093140;28;20172;-43
2021/04/04 03:33:15;;;;;;;1999.90;999.90;;;15.50;92.90;;;;;;5093343;28;20160;-43
2021/04/04 03:35:45;;;;;;;1999.90;999.90;;;15.40;92.90;;;;;;5092962;28;20167;-44
2021/04/04 03:38:13;;;;;;;1999.90;999.90;;;15.50;92.90;;;;;;5092798;28;20191;-44
2021/04/04 03:40:40;;;;;;;1999.90;999.90;;;15.60;93.20;;;;;;5092897;28;20171;-44
2021/04/04 03:43:11;;;;;;;1999.90;999.90;;;15.60;92.60;;;;;;5092896;28;20164;-44
2021/04/04 03:45:38;;;;;;;1999.90;999.90;;;15.60;92.30;;;;;;5092955;28;20239;-44
2021/04/04 03:48:06;;;;;;;1999.90;999.90;;;15.50;92.60;;;;;;5092874;28;20178;-42
2021/04/04 03:50:38;;;;;;;1999.90;999.90;;;15.50;92.90;;;;;;5092849;28;20160;-43
2021/04/04 03:53:06;;;;;;;1999.90;999.90;;;15.40;92.80;;;;;;5093142;28;20160;-42
2021/04/04 03:55:34;;;;;;;1999.90;999.90;;;15.40;92.80;;;;;;5096953;28;20246;-35
2021/04/04 03:58:03;;;;;;;1999.90;999.90;;;15.40;92.70;;;;;;5096788;28;20171;-43
2021/04/04 04:00:33;;;;;;;1999.90;999.90;;;15.50;92.90;;;;;;5096680;28;20171;-43
2021/04/04 04:03:02;;;;;;;1999.90;999.90;;;15.40;92.90;;;;;;5096845;28;20184;-43
2021/04/04 04:05:29;;;;;;;1999.90;999.90;;;15.40;92.80;;;;;;5096767;28;20637;-42
2021/04/04 04:07:57;;;;;;;1999.90;999.90;;;15.30;93.10;;;;;;5096717;28;20630;-43
2021/04/04 04:10:24;;;;;;;1999.90;999.90;;;15.20;93.20;;;;;;5096654;28;20241;-43
2021/04/04 04:12:52;;;;;;;1999.90;999.90;;;15.20;93.20;;;;;;5096729;28;20164;-42
2021/04/04 04:15:19;;;;;;;1999.90;999.90;;;15.20;93.30;;;;;;5096592;28;20179;-43
2021/04/04 04:17:48;;;;;;;1999.90;999.90;;;15.20;93.70;;;;;;5096477;28;20160;-34
2021/04/04 04:20:16;;;;;;;1999.90;999.90;;;15.20;93.90;;;;;;5096526;28;20168;-41
2021/04/04 04:22:43;;;;;;;1999.90;999.90;;;15.20;93.90;;;;;;5096230;28;20214;-44
2021/04/04 04:25:11;;;;;;;1999.90;999.90;;;15.20;93.80;;;;;;5096460;28;20209;-44
2021/04/04 04:27:41;;;;;;;1999.90;999.90;;;15.20;93.70;;;;;;5096207;28;20278;-44
2021/04/04 04:30:10;;;;;;;1999.90;999.90;;;15.30;93.80;;;;;;5096047;28;20186;-45
2021/04/04 04:32:39;;;;;;;1999.90;999.90;;;15.30;93.60;;;;;;5096102;28;20172;-44
2021/04/04 04:35:07;;;;;;;1999.90;999.90;;;15.30;93.70;;;;;;5096198;28;20178;-44
2021/04/04 04:37:37;;;;;;;1999.90;999.90;;;15.40;93.60;;;;;;5096152;28;20164;-33
2021/04/04 04:40:09;;;;;;;1999.90;999.90;;;15.40;93.60;;;;;;5096077;28;20167;-33
2021/04/04 04:42:40;;;;;;;1999.90;999.90;;;15.40;93.60;;;;;;5096111;28;20207;-43
2021/04/04 04:45:12;;;;;;;1999.90;999.90;;;15.40;93.70;;;;;;5096054;28;20148;-42
2021/04/04 04:47:39;;;;;;;1999.90;999.90;;;15.40;93.80;;;;;;5096026;28;20152;-45
2021/04/04 04:50:07;;;;;;;1999.90;999.90;;;15.50;93.60;;;;;;5095901;28;20164;-45
2021/04/04 04:52:33;;;;;;;1999.90;999.90;;;15.50;93.50;;;;;;5095807;28;20217;-43
2021/04/04 04:55:00;;;;;;;1999.90;999.90;;;15.40;93.50;;;;;;5095781;28;20167;-43
2021/04/04 04:57:28;;;;;;;1999.90;999.90;;;15.40;93.80;;;;;;5095934;28;20608;-44
2021/04/04 04:59:58;;;;;;;1999.90;999.90;;;15.40;93.80;;;;;;5095838;28;20542;-44
2021/04/04 05:02:24;;;;;;;1999.90;999.90;;;15.30;93.90;;;;;;5095636;28;20214;-34
2021/04/04 05:04:51;;;;;;;1999.90;999.90;;;15.30;94.00;;;;;;5095153;28;20172;-37
2021/04/04 05:07:19;;;;;;;1999.90;999.90;;;15.20;94.30;;;;;;5095621;28;20252;-36
2021/04/04 05:09:47;;;;;;;1999.90;999.90;;;15.20;94.20;;;;;;5095555;28;20636;-45
2021/04/04 05:12:25;;;;;;;1999.90;999.90;;;15.30;94.20;;;;;;5095500;28;20646;-45
2021/04/04 05:14:53;;;;;;;1999.90;999.90;;;15.20;94.30;;;;;;5095417;28;20182;-34
2021/04/04 05:17:21;;;;;;;1999.90;999.90;;;15.30;94.40;;;;;;5095324;28;20168;-34
2021/04/04 05:19:49;;;;;;;1999.90;999.90;;;15.30;94.40;;;;;;5077485;28;20618;-44
2021/04/04 05:22:16;;;;;;;1999.90;999.90;;;15.30;94.40;;;;;;5095261;28;20204;-34
2021/04/04 05:24:47;;;;;;;1999.90;999.90;;;15.30;94.50;;;;;;5095255;28;20164;-33
2021/04/04 05:27:14;;;;;;;1999.90;999.90;;;15.30;94.80;;;;;;5095131;28;20563;-33
2021/04/04 05:29:41;;;;;;;1999.90;999.90;;;15.20;94.80;;;;;;5095355;28;20564;-35
2021/04/04 05:32:11;;;;;;;1999.90;999.90;;;15.20;94.80;;;;;;5094968;28;20574;-44
2021/04/04 05:34:39;;;;;;;1999.90;999.90;;;15.30;94.60;;;;;;5095086;28;20645;-33
2021/04/04 05:37:07;;;;;;;1999.90;999.90;;;15.30;94.50;;;;;;5094710;28;20272;-43
2021/04/04 05:39:38;;;;;;;1999.90;999.90;;;15.40;94.70;;;;;;5094832;28;20195;-43
2021/04/04 05:42:08;;;;;;;1999.90;999.90;;;15.50;94.50;;;;;;5094653;28;20236;-43
2021/04/04 05:44:38;;;;;;;1999.90;999.90;;;15.60;94.30;;;;;;5094635;28;20164;-32
2021/04/04 05:47:12;;;;;;;1999.90;999.90;;;15.60;94.20;;;;;;5094305;28;20290;-43
2021/04/04 05:50:02;;;;;;;1999.90;999.90;;;15.70;94.10;;;;;;5094534;28;20224;-34
2021/04/04 05:53:06;;;;;;;1999.90;999.90;;;15.70;94.10;;;;;;5094523;28;20156;-33
2021/04/04 05:55:32;;;;;;;1999.90;999.90;;;15.80;93.90;;;;;;5094621;28;20159;-44
2021/04/04 05:58:11;;;;;;;1999.90;999.90;;;16.00;93.70;;;;;;5094476;28;20203;-44
2021/04/04 06:00:45;;;;;;;1999.90;999.90;;;16.00;93.30;;;;;;5094305;28;20187;-34
2021/04/04 06:04:01;;;;;;;1999.90;999.90;;;16.10;93.20;;;;;;5094280;28;20164;-43
2021/04/04 06:06:50;;;;;;;1999.90;999.90;;;16.20;93.10;;;;;;5051796;28;20179;-43
2021/04/04 06:09:29;;;;;;;1999.90;999.90;;;16.20;93.30;;;;;;5094171;28;20206;-43
2021/04/04 06:12:17;;;;;;;1999.90;999.90;;;16.30;93.30;;;;;;5076187;28;20569;-33
2021/04/04 06:14:56;;;;;;;1999.90;999.90;;;16.40;93.30;;;;;;5093931;28;20242;-33
2021/04/04 06:17:55;;;;;;;1999.90;999.90;;;16.50;93.10;;;;;;5094144;28;20178;-43
2021/04/04 06:21:04;;;;;;;1999.90;999.90;;;16.60;93.20;;;;;;5039143;28;20186;-44
2021/04/04 06:23:55;;;;;;;1999.90;999.90;;;16.70;93.10;;;;;;4992307;28;20277;-42
2021/04/04 06:26:36;;;;;;;1999.90;999.90;;;16.80;93.30;;;;;;5093743;28;20168;-43
2021/04/04 06:29:16;;;;;;;1999.90;999.90;;;17.00;93.30;;;;;;5093872;28;20611;-44
2021/04/04 06:31:49;;;;;;;1999.90;999.90;;;17.10;93.40;;;;;;5093362;28;20235;-44
2021/04/04 06:34:30;;;;;;;1999.90;999.90;;;17.30;93.20;;;;;;5093637;28;20211;-43
2021/04/04 06:37:32;;;;;;;1999.90;999.90;;;17.40;93.10;;;;;;5093592;28;20163;-41
2021/04/04 06:40:22;;;;;;;1999.90;999.90;;;17.50;93.20;;;;;;5093566;28;20167;-42
2021/04/04 06:43:25;;;;;;;1999.90;999.90;;;17.60;93.40;;;;;;5093296;28;20199;-42
2021/04/04 06:46:11;;;;;;;1999.90;999.90;;;17.70;93.50;;;;;;5093614;28;20156;-42
2021/04/04 06:49:02;;;;;;;1999.90;999.90;;;17.80;93.40;;;;;;5093535;28;20182;-42
2021/04/04 06:51:50;;;;;;;1999.90;999.90;;;17.90;93.50;;;;;;5093435;28;20196;-31
2021/04/04 06:54:27;;;;;;;1999.90;999.90;;;18.00;93.30;;;;;;5093578;28;20159;-31
2021/04/04 06:57:12;;;;;;;1999.90;999.90;;;18.10;93.00;;;;;;5093281;28;20159;-32
2021/04/04 06:59:50;;;;;;;1999.90;999.90;;;18.20;92.90;;;;;;5093380;28;20622;-41
2021/04/04 07:02:21;;;;;;;1999.90;999.90;;;18.30;92.80;;;;;;5093127;28;20218;-33
2021/04/04 07:05:04;;;;;;;1999.90;999.90;;;18.40;92.40;;;;;;5093233;28;20190;-42
2021/04/04 07:07:42;;;;;;;1999.90;999.90;;;18.50;92.20;;;;;;5093263;28;20242;-42
2021/04/04 07:10:53;;;;;;;1999.90;999.90;;;18.70;92.00;;;;;;5093218;28;20168;-41
2021/04/04 07:13:32;;;;;;;1999.90;999.90;;;18.90;91.40;;;;;;5067775;28;20191;-42
2021/04/04 07:16:26;;;;;;;1999.90;999.90;;;19.10;91.10;;;;;;5092978;28;20199;-33
2021/04/04 07:19:08;;;;;;;1999.90;999.90;;;19.30;90.60;;;;;;5092846;28;20174;-42
2021/04/04 07:21:59;;;;;;;1999.90;999.90;;;19.40;90.40;;;;;;5093082;28;20195;-31
2021/04/04 07:24:51;;;;;;;1999.90;999.90;;;19.50;90.00;;;;;;5092959;28;20522;-42
2021/04/04 07:27:51;;;;;;;1999.90;999.90;;;19.60;89.40;;;;;;5092895;28;20158;-43
2021/04/04 07:30:49;;;;;;;1999.90;999.90;;;19.80;88.80;;;;;;5092627;28;20183;-40
2021/04/04 07:33:21;;;;;;;1999.90;999.90;;;20.00;87.50;;;;;;5092754;28;20176;-42
2021/04/04 07:36:01;;;;;;;1999.90;999.90;;;20.20;86.10;;;;;;5092758;28;20168;-42
2021/04/04 07:38:48;;;;;;;1999.90;999.90;;;20.40;84.70;;;;;;5092780;28;20164;-32
2021/04/04 07:41:38;;;;;;;1999.90;999.90;;;20.60;83.20;;;;;;5092438;28;20207;-41
2021/04/04 07:44:27;;;;;;;1999.90;999.90;;;20.70;82.10;;;;;;5079975;28;20188;-42
2021/04/04 07:47:30;;;;;;;1999.90;999.90;;;20.90;80.60;;;;;;5046154;28;20176;-35
2021/04/04 07:50:10;;;;;;;1999.90;999.90;;;21.20;79.60;;;;;;5040438;28;20203;-42
2021/04/04 07:52:40;;;;;;;1999.90;999.90;;;21.70;78.90;;;;;;5092656;28;20148;-42
2021/04/04 07:55:16;;;;;;;1999.90;999.90;;;22.20;76.70;;;;;;5092638;28;20167;-34
2021/04/04 07:57:52;;;;;;;1999.90;999.90;;;22.90;73.80;;;;;;5092644;28;20167;-43
2021/04/04 08:00:20;;;;;;;1999.90;999.90;;;23.60;70.40;;;;;;5092469;28;20152;-44
2021/04/04 08:03:13;;;;;;;1999.90;999.90;;;24.10;67.40;;;;;;5092564;28;20264;-44
2021/04/04 08:05:45;;;;;;;1999.90;999.90;;;24.50;64.60;;;;;;5092722;28;20575;-43
2021/04/04 08:08:28;;;;;;;1999.90;999.90;;;24.40;64.20;;;;;;5092790;28;20179;-43
2021/04/04 08:11:18;;;;;;;1999.90;999.90;;;24.20;64.40;;;;;;5092458;28;20152;-44
2021/04/04 08:13:55;;;;;;;1999.90;999.90;;;24.40;63.90;;;;;;5092311;28;20164;-44
2021/04/04 08:16:33;;;;;;;1999.90;999.90;;;25.00;61.80;;;;;;5092439;28;20148;-44
2021/04/04 08:19:00;;;;;;;1999.90;999.90;;;25.00;60.00;;;;;;5092435;28;20205;-42
2021/04/04 08:21:53;;;;;;;1999.90;999.90;;;25.40;59.80;;;;;;5092333;28;20215;-32
2021/04/04 08:24:39;;;;;;;1999.90;999.90;;;25.80;59.10;;;;;;5082260;28;20175;-33
2021/04/04 08:27:27;;;;;;;1999.90;999.90;;;26.20;57.40;;;;;;5092332;28;20620;-32
2021/04/04 08:30:02;;;;;;;1999.90;999.90;;;27.00;55.30;;;;;;5092269;28;20156;-43
2021/04/04 08:32:38;;;;;;;1999.90;999.90;;;27.20;54.30;;;;;;5092300;28;20263;-44
2021/04/04 08:35:09;;;;;;;1999.90;999.90;;;27.10;54.50;;;;;;5092328;28;20176;-43
2021/04/04 08:37:41;;;;;;;1999.90;999.90;;;26.70;54.80;;;;;;5092157;28;20501;-33
2021/04/04 08:40:14;;;;;;;1999.90;999.90;;;27.20;54.40;;;;;;5092331;28;20164;-42
2021/04/04 08:42:43;;;;;;;1999.90;999.90;;;27.50;53.10;;;;;;5077790;28;20204;-43
2021/04/04 08:45:32;;;;;;;1999.90;999.90;;;27.60;52.70;;;;;;5095767;28;20168;-41
2021/04/04 08:48:00;;;;;;;1999.90;999.90;;;27.30;53.30;;;;;;5095806;28;20619;-40
2021/04/04 08:50:30;;;;;;;1999.90;999.90;;;27.80;52.00;;;;;;5095707;28;20170;-35
2021/04/04 08:53:24;;;;;;;1999.90;999.90;;;28.00;51.00;;;;;;5095658;28;20217;-32
2021/04/04 08:55:52;;;;;;;1999.90;999.90;;;28.30;49.80;;;;;;5095657;28;20163;-42
2021/04/04 08:58:25;;;;;;;1999.90;999.90;;;28.30;49.50;;;;;;5095784;28;20564;-42
2021/04/04 09:00:57;;;;;;;1999.90;999.90;;;28.50;48.90;;;;;;5095347;28;20152;-34
2021/04/04 09:03:25;;;;;;;1999.90;999.90;;;28.50;48.40;;;;;;5095404;28;20164;-36
2021/04/04 09:06:08;;;;;;;1999.90;999.90;;;28.60;48.00;;;;;;5095335;28;20171;-37
2021/04/04 09:08:41;;;;;;;1999.90;999.90;;;28.80;47.60;;;;;;5095250;28;20164;-39
2021/04/04 09:11:10;;;;;;;1999.90;999.90;;;29.00;46.50;;;;;;5095199;28;20615;-32
2021/04/04 09:13:38;;;;;;;1999.90;999.90;;;29.10;46.80;;;;;;5095061;28;20167;-36
2021/04/04 09:16:11;;;;;;;1999.90;999.90;;;29.30;47.00;;;;;;5095166;28;20183;-34
2021/04/04 09:18:49;;;;;;;1999.90;999.90;;;27.90;48.60;;;;;;5095003;28;20161;-33
2021/04/04 09:21:19;;;;;;;1999.90;999.90;;;27.80;50.10;;;;;;5095193;28;20198;-34
2021/04/04 09:23:53;;;;;;;1999.90;999.90;;;28.70;48.40;;;;;;5095005;28;20176;-38
2021/04/04 09:26:25;;;;;;;1999.90;999.90;;;29.10;47.10;;;;;;5094983;28;20217;-33
2021/04/04 09:28:53;;;;;;;1999.90;999.90;;;29.10;47.20;;;;;;5094851;28;20168;-45
2021/04/04 09:31:31;;;;;;;1999.90;999.90;;;29.50;46.40;;;;;;5095030;28;20212;-40
2021/04/04 09:34:07;;;;;;;1999.90;999.90;;;29.70;46.60;;;;;;5095110;28;20155;-34
2021/04/04 09:36:49;;;;;;;1999.90;999.90;;;29.70;46.90;;;;;;5095098;28;20156;-31
2021/04/04 09:39:25;;;;;;;1999.90;999.90;;;30.00;46.10;;;;;;5094868;28;20251;-34
2021/04/04 09:41:53;;;;;;;1999.90;999.90;;;30.00;46.80;;;;;;5094922;28;20191;-31
2021/04/04 09:44:32;;;;;;;1999.90;999.90;;;29.80;46.80;;;;;;5094986;28;20567;-38
2021/04/04 09:47:00;;;;;;;1999.90;999.90;;;30.00;46.80;;;;;;5094857;28;20167;-34
2021/04/04 09:49:34;;;;;;;1999.90;999.90;;;30.50;45.90;;;;;;5094822;28;20160;-33
2021/04/04 09:52:15;;;;;;;1999.90;999.90;;;30.60;45.60;;;;;;5094375;28;20616;-34
2021/04/04 09:55:06;;;;;;;1999.90;999.90;;;30.60;45.10;;;;;;5094801;28;20205;-37
2021/04/04 09:57:46;;;;;;;1999.90;999.90;;;30.50;45.50;;;;;;5095010;28;20144;-32
2021/04/04 10:00:30;;;;;;;1999.90;999.90;;;30.50;45.90;;;;;;5094511;28;20194;-48
2021/04/04 10:03:08;;;;;;;1999.90;999.90;;;30.60;45.80;;;;;;5094475;28;20195;-45
2021/04/04 10:05:39;;;;;;;1999.90;999.90;;;30.30;47.10;;;;;;5094505;28;20152;-35
2021/04/04 10:08:16;;;;;;;1999.90;999.90;;;29.40;48.20;;;;;;5094398;28;20172;-31
2021/04/04 10:10:47;;;;;;;1999.90;999.90;;;29.20;49.40;;;;;;5094255;28;20178;-36
2021/04/04 10:13:16;;;;;;;1999.90;999.90;;;28.70;51.60;;;;;;5094275;28;20567;-32
2021/04/04 10:15:45;;;;;;;1999.90;999.90;;;28.60;52.80;;;;;;5094210;28;20843;-49
2021/04/04 10:18:12;;;;;;;1999.90;999.90;;;29.00;51.70;;;;;;5094269;28;20681;-31
2021/04/04 10:20:45;;;;;;;1999.90;999.90;;;29.60;50.70;;;;;;5094063;28;20174;-32
2021/04/04 10:23:14;;;;;;;1999.90;999.90;;;29.50;52.10;;;;;;5094378;28;20183;-40
2021/04/04 10:25:59;;;;;;;1999.90;999.90;;;29.30;53.00;;;;;;5093996;28;20210;-51
2021/04/04 10:28:48;;;;;;;1999.90;999.90;;;28.60;54.60;;;;;;5094170;28;20167;-32
2021/04/04 10:31:16;;;;;;;1999.90;999.90;;;28.70;55.00;;;;;;5093703;28;20227;-35
2021/04/04 10:33:43;;;;;;;1999.90;999.90;;;28.40;55.50;;;;;;5093940;28;20164;-32
2021/04/04 10:36:16;;;;;;;1999.90;999.90;;;28.80;54.80;;;;;;5093831;28;20250;-32
2021/04/04 10:38:43;;;;;;;1999.90;999.90;;;28.90;54.90;;;;;;5093557;28;20706;-42
2021/04/04 10:41:11;;;;;;;1999.90;999.90;;;28.90;54.60;;;;;;5093746;28;20296;-49
2021/04/04 10:43:45;;;;;;;1999.90;999.90;;;27.80;57.10;;;;;;5093789;28;20191;-33
2021/04/04 10:46:12;;;;;;;1999.90;999.90;;;28.00;57.50;;;;;;5093755;28;20512;-44
2021/04/04 10:48:41;;;;;;;1999.90;999.90;;;28.30;56.80;;;;;;5093604;28;20172;-40
2021/04/04 10:51:11;;;;;;;1999.90;999.90;;;28.70;55.80;;;;;;5093557;28;20634;-46
2021/04/04 10:53:39;;;;;;;1999.90;999.90;;;29.00;54.90;;;;;;5093524;28;20258;-47
2021/04/04 10:56:07;;;;;;;1999.90;999.90;;;29.20;54.90;;;;;;5093665;28;20210;-32
2021/04/04 10:58:36;;;;;;;1999.90;999.90;;;29.30;54.30;;;;;;5093619;28;20163;-43
2021/04/04 11:01:04;;;;;;;1999.90;999.90;;;29.10;55.20;;;;;;5093401;28;20174;-34
2021/04/04 11:03:32;;;;;;;1999.90;999.90;;;28.70;55.80;;;;;;5092710;28;20199;-32
2021/04/04 11:06:00;;;;;;;1999.90;999.90;;;28.00;57.30;;;;;;5093385;28;20164;-42
2021/04/04 11:08:27;;;;;;;1999.90;999.90;;;28.10;57.30;;;;;;5093401;28;20171;-32
2021/04/04 11:10:55;;;;;;;1999.90;999.90;;;27.80;57.80;;;;;;5093401;28;20163;-31
2021/04/04 11:13:25;;;;;;;1999.90;999.90;;;28.10;57.40;;;;;;5093301;28;20217;-35
2021/04/04 11:15:59;;;;;;;1999.90;999.90;;;28.40;56.90;;;;;;5093139;28;20171;-32
2021/04/04 11:18:48;;;;;;;1999.90;999.90;;;28.70;56.20;;;;;;5093502;28;20589;-32
2021/04/04 11:21:39;;;;;;;1999.90;999.90;;;28.50;56.50;;;;;;5093032;28;20248;-33
2021/04/04 11:24:19;;;;;;;1999.90;999.90;;;28.90;55.80;;;;;;5081697;28;20192;-32
2021/04/04 11:26:59;;;;;;;1999.90;999.90;;;29.20;55.20;;;;;;5092870;28;20168;-32
2021/04/04 11:29:27;;;;;;;1999.90;999.90;;;28.60;55.80;;;;;;5093105;28;20525;-32
2021/04/04 11:31:56;;;;;;;1999.90;999.90;;;28.70;55.70;;;;;;5092538;28;20223;-33
2021/04/04 11:34:38;;;;;;;1999.90;999.90;;;29.10;55.10;;;;;;5092822;28;20274;-37
2021/04/04 11:37:31;;;;;;;1999.90;999.90;;;29.60;54.30;;;;;;5092702;28;20321;-32
2021/04/04 11:40:23;;;;;;;1999.90;999.90;;;29.90;52.80;;;;;;5078800;28;20266;-54
2021/04/04 11:43:11;;;;;;;1999.90;999.90;;;30.00;52.80;;;;;;5092962;28;20290;-32
2021/04/04 11:45:40;;;;;;;1999.90;999.90;;;30.10;52.40;;;;;;5092886;28;20661;-35
2021/04/04 11:48:33;;;;;;;1999.90;999.90;;;30.10;52.40;;;;;;5092623;28;20243;-43
2021/04/04 11:51:19;;;;;;;1999.90;999.90;;;30.10;51.40;;;;;;5092896;28;20156;-32
2021/04/04 11:53:47;;;;;;;1999.90;999.90;;;30.00;51.20;;;;;;5075848;28;20645;-42
2021/04/04 11:56:42;;;;;;;1999.90;999.90;;;30.00;52.30;;;;;;5092720;28;20175;-33
2021/04/04 11:59:09;;;;;;;1999.90;999.90;;;29.60;53.70;;;;;;5092879;28;20183;-31
2021/04/04 12:01:36;;;;;;;1999.90;999.90;;;29.00;55.20;;;;;;5092740;28;20235;-31
2021/04/04 12:04:21;;;;;;;1999.90;999.90;;;28.70;56.30;;;;;;5092781;28;20175;-34
2021/04/04 12:07:11;;;;;;;1999.90;999.90;;;28.70;56.40;;;;;;5092782;28;20167;-37
2021/04/04 12:09:39;;;;;;;1999.90;999.90;;;28.60;56.50;;;;;;5092660;28;20155;-51
2021/04/04 12:12:07;;;;;;;1999.90;999.90;;;28.30;57.00;;;;;;5092618;28;20168;-32
2021/04/04 12:14:55;;;;;;;1999.90;999.90;;;28.20;57.30;;;;;;5093671;28;20175;-32
2021/04/04 12:17:24;;;;;;;1999.90;999.90;;;28.30;57.10;;;;;;5096617;28;20201;-32
2021/04/04 12:19:52;;;;;;;1999.90;999.90;;;28.30;56.80;;;;;;5096501;28;20205;-32
2021/04/04 12:22:20;;;;;;;1999.90;999.90;;;28.20;56.90;;;;;;5096378;28;20598;-39
2021/04/04 12:24:52;;;;;;;1999.90;999.90;;;27.70;58.10;;;;;;5096030;28;20174;-34
2021/04/04 12:27:24;;;;;;;1999.90;999.90;;;27.70;58.40;;;;;;5078266;28;20172;-42
2021/04/04 12:29:56;;;;;;;1999.90;999.90;;;28.10;57.60;;;;;;5096030;28;20167;-31
2021/04/04 12:32:24;;;;;;;1999.90;999.90;;;28.30;56.70;;;;;;5096080;28;20219;-35
2021/04/04 12:34:54;;;;;;;1999.90;999.90;;;28.20;56.90;;;;;;5095998;28;20634;-32